Lingfield, United Kingdom
Current Conditions -  °F | °C
As of 8:20 PM on Monday 26 Jan 2015 (Local Time) from EGKK Reporting Station
Clear Clear  
Wind Chill: 37°   Ceiling: Unl
Heat Index: 41°   Visibility: 6mi
Dew Point: 34°   Wind: 6mph
Humidity: 76%   Direction: 290°WNW
Pressure: 30.33"   Gusts: NA
Location:  51.17°N, 0.01°W
Report Text: EGKK 262020Z 29005KT CAVOK 05/01 Q1027
Loading
Personal Weather Stations






























Interactive Weather Map New forecast layout! Learn more

10-Day Weather Forecast

Advertisements
Track Severe Weather on mobile